Map

Track Data

SID SEASON NUMBER BASIN SUBBASIN NAME ISO_TIME NATURE LAT LON WMO_WIND WMO_PRES WMO_AGENCY TRACK_TYPE DIST2LAND LANDFALL IFLAG USA_AGENCY USA_ATCF_ID USA_LAT USA_LON USA_RECORD USA_STATUS USA_WIND USA_PRES USA_SSHS USA_R34_NE USA_R34_SE USA_R34_SW USA_R34_NW USA_R50_NE USA_R50_SE USA_R50_SW USA_R50_NW USA_R64_NE USA_R64_SE USA_R64_SW USA_R64_NW USA_POCI USA_ROCI USA_RMW USA_EYE TOKYO_LAT TOKYO_LON TOKYO_GRADE TOKYO_WIND TOKYO_PRES TOKYO_R50_DIR TOKYO_R50_LONG TOKYO_R50_SHORT TOKYO_R30_DIR TOKYO_R30_LONG TOKYO_R30_SHORT TOKYO_LAND CMA_LAT CMA_LON CMA_CAT CMA_WIND CMA_PRES HKO_LAT HKO_LON HKO_CAT HKO_WIND HKO_PRES NEWDELHI_LAT NEWDELHI_LON NEWDELHI_GRADE NEWDELHI_WIND NEWDELHI_PRES NEWDELHI_CI NEWDELHI_DP NEWDELHI_POCI REUNION_LAT REUNION_LON REUNION_TYPE REUNION_WIND REUNION_PRES REUNION_TNUM REUNION_CI REUNION_RMW REUNION_R34_NE REUNION_R34_SE REUNION_R34_SW REUNION_R34_NW REUNION_R50_NE REUNION_R50_SE REUNION_R50_SW REUNION_R50_NW REUNION_R64_NE REUNION_R64_SE REUNION_R64_SW REUNION_R64_NW BOM_LAT BOM_LON BOM_TYPE BOM_WIND BOM_PRES BOM_TNUM BOM_CI BOM_RMW BOM_R34_NE BOM_R34_SE BOM_R34_SW BOM_R34_NW BOM_R50_NE BOM_R50_SE BOM_R50_SW BOM_R50_NW BOM_R64_NE BOM_R64_SE BOM_R64_SW BOM_R64_NW BOM_ROCI BOM_POCI BOM_EYE BOM_POS_METHOD BOM_PRES_METHOD NADI_LAT NADI_LON NADI_CAT NADI_WIND NADI_PRES WELLINGTON_LAT WELLINGTON_LON WELLINGTON_WIND WELLINGTON_PRES DS824_LAT DS824_LON DS824_STAGE DS824_WIND DS824_PRES TD9636_LAT TD9636_LON TD9636_STAGE TD9636_WIND TD9636_PRES TD9635_LAT TD9635_LON TD9635_WIND TD9635_PRES TD9635_ROCI NEUMANN_LAT NEUMANN_LON NEUMANN_CLASS NEUMANN_WIND NEUMANN_PRES MLC_LAT MLC_LON MLC_CLASS MLC_WIND MLC_PRES USA_GUST BOM_GUST BOM_GUST_PER REUNION_GUST REUNION_GUST_PER USA_SEAHGT USA_SEARAD_NE USA_SEARAD_SE USA_SEARAD_SW USA_SEARAD_NW STORM_SPEED STORM_DIR
1945255N19302 1945 60 NA NA NOT_NAMED 1945-09-12 00:00:00 TS 19.0000 -58.5000 65 hurdat_atl main 750 677 O_____________ hurdat_atl AL091945 19.0000 -58.5000 HU 65 1 13 274
1945255N19302 1945 60 NA NA NOT_NAMED 1945-09-12 03:00:00 TS 19.0505 -59.1974 main 678 605 P_____________ AL091945 19.0505 -59.1974 HU 67 1 13 274
1945255N19302 1945 60 NA NA NOT_NAMED 1945-09-12 06:00:00 TS 19.1000 -59.9000 70 hurdat_atl main 605 532 O_____________ hurdat_atl AL091945 19.1000 -59.9000 HU 70 1 13 274
1945255N19302 1945 60 NA NA NOT_NAMED 1945-09-12 09:00:00 TS 19.1498 -60.6075 main 532 461 P_____________ AL091945 19.1498 -60.6075 HU 72 1 13 274
1945255N19302 1945 60 NA NA NOT_NAMED 1945-09-12 12:00:00 TS 19.2000 -61.3000 75 hurdat_atl main 461 399 O_____________ hurdat_atl AL091945 19.2000 -61.3000 HU 75 1 13 274
1945255N19302 1945 60 NA NA NOT_NAMED 1945-09-12 15:00:00 TS 19.2423 -61.9651 main 389 331 P_____________ AL091945 19.2423 -61.9651 HU 77 1 12 275
1945255N19302 1945 60 NA NA NOT_NAMED 1945-09-12 18:00:00 TS 19.3000 -62.6000 80 hurdat_atl main 331 276 O_____________ hurdat_atl AL091945 19.3000 -62.6000 HU 80 1 12 277
1945255N19302 1945 60 NA NA NOT_NAMED 1945-09-12 21:00:00 TS 19.3848 -63.2151 main 276 225 P_____________ AL091945 19.3848 -63.2151 HU 82 1 12 280
1945255N19302 1945 60 NA NA NOT_NAMED 1945-09-13 00:00:00 TS 19.5000 -63.8000 85 hurdat_atl main 225 191 O_____________ hurdat_atl AL091945 19.5000 -63.8000 HU 85 2 11 283
1945255N19302 1945 60 NA NA NOT_NAMED 1945-09-13 03:00:00 TS 19.6346 -64.3427 main 191 173 P_____________ AL091945 19.6346 -64.3427 HU 90 2 11 286
1945255N19302 1945 60 NA NA NOT_NAMED 1945-09-13 06:00:00 TS 19.8000 -64.9000 95 hurdat_atl main 173 168 O_____________ hurdat_atl AL091945 19.8000 -64.9000 HU 95 2 11 288
1945255N19302 1945 60 NA NA NOT_NAMED 1945-09-13 09:00:00 TS 19.9920 -65.4977 main 179 178 P_____________ AL091945 19.9920 -65.4977 HU 95 2 13 288
1945255N19302 1945 60 NA NA NOT_NAMED 1945-09-13 12:00:00 TS 20.2000 -66.2000 95 hurdat_atl main 201 201 O_____________ hurdat_atl AL091945 20.2000 -66.2000 HU 95 2 15 286
1945255N19302 1945 60 NA NA NOT_NAMED 1945-09-13 15:00:00 TS 20.3998 -67.0477 main 223 206 P_____________ AL091945 20.3998 -67.0477 HU 97 3 17 283
1945255N19302 1945 60 NA NA NOT_NAMED 1945-09-13 18:00:00 TS 20.6000 -68.0000 100 hurdat_atl main 199 168 O_____________ hurdat_atl AL091945 20.6000 -68.0000 HU 100 3 19 283
1945255N19302 1945 60 NA NA NOT_NAMED 1945-09-13 21:00:00 TS 20.8075 -69.0075 main 170 148 P_____________ AL091945 20.8075 -69.0075 HU 100 3 19 282
1945255N19302 1945 60 NA NA NOT_NAMED 1945-09-14 00:00:00 TS 21.0000 -70.0000 100 hurdat_atl main 148 137 O_____________ hurdat_atl AL091945 21.0000 -70.0000 HU 100 3 18 281
1945255N19302 1945 60 NA NA NOT_NAMED 1945-09-14 03:00:00 TS 21.1571 -70.9027 main 156 135 P_____________ AL091945 21.1571 -70.9027 HU 102 3 16 281
1945255N19302 1945 60 NA NA NOT_NAMED 1945-09-14 06:00:00 TS 21.3000 -71.7000 105 hurdat_atl main 135 75 O_____________ hurdat_atl AL091945 21.3000 -71.7000 HU 105 3 14 282
1945255N19302 1945 60 NA NA NOT_NAMED 1945-09-14 09:00:00 TS 21.4418 -72.3728 main 66 39 P_____________ AL091945 21.4418 -72.3728 HU 105 3 12 284
1945255N19302 1945 60 NA NA NOT_NAMED 1945-09-14 12:00:00 TS 21.6000 -73.0000 105 hurdat_atl main 44 44 O_____________ hurdat_atl AL091945 21.6000 -73.0000 HU 105 3 13 285
1945255N19302 1945 60 NA NA NOT_NAMED 1945-09-14 15:00:00 TS 21.7773 -73.6928 main 78 78 P_____________ AL091945 21.7773 -73.6928 HU 105 3 14 287
1945255N19302 1945 60 NA NA NOT_NAMED 1945-09-14 18:00:00 TS 22.0000 -74.4000 105 hurdat_atl main 123 123 O_____________ hurdat_atl AL091945 22.0000 -74.4000 HU 105 3 14 291
1945255N19302 1945 60 NA NA NOT_NAMED 1945-09-14 21:00:00 TS 22.2697 -75.1003 main 154 148 P_____________ AL091945 22.2697 -75.1003 HU 105 3 14 295
1945255N19302 1945 60 NA NA NOT_NAMED 1945-09-15 00:00:00 TS 22.6000 -75.8000 105 hurdat_atl main 161 151 O_____________ hurdat_atl AL091945 22.6000 -75.8000 HU 105 3 15 299
1945255N19302 1945 60 NA NA NOT_NAMED 1945-09-15 03:00:00 TS 22.9847 -76.5002 main 157 120 P_____________ AL091945 22.9847 -76.5002 HU 107 3 15 302
1945255N19302 1945 60 NA NA NOT_NAMED 1945-09-15 06:00:00 TS 23.4000 -77.2000 110 hurdat_atl main 120 45 O_____________ hurdat_atl AL091945 23.4000 -77.2000 HU 110 3 15 302
1945255N19302 1945 60 NA NA NOT_NAMED 1945-09-15 09:00:00 TS 23.7922 -77.9006 main 45 30 P_____________ AL091945 23.7922 -77.9006 HU 112 3 15 302
1945255N19302 1945 60 NA NA NOT_NAMED 1945-09-15 12:00:00 TS 24.2000 -78.6000 115 hurdat_atl main 45 39 O_____________ hurdat_atl AL091945 24.2000 -78.6000 HU 115 4 16 304
1945255N19302 1945 60 NA NA NOT_NAMED 1945-09-15 15:00:00 TS 24.6562 -79.3250 main 81 40 P_____________ AL091945 24.6562 -79.3250 HU 115 4 16 305
1945255N19302 1945 60 NA NA NOT_NAMED 1945-09-15 18:00:00 TS 25.1000 -80.0000 115 949 hurdat_atl main 40 10 O_____________ hurdat_atl AL091945 25.1000 -80.0000 HU 115 949 4 15 306
1945255N19302 1945 60 NA NA NOT_NAMED 1945-09-15 19:30:00 TS 25.3000 -80.3000 115 949 hurdat_atl main 10 0 O_____________ hurdat_atl AL091945 25.3000 -80.3000 L HU 115 949 4 14 310
1945255N19302 1945 60 NA NA NOT_NAMED 1945-09-15 20:00:00 TS 25.4000 -80.4000 115 949 hurdat_atl main 0 0 O_____________ hurdat_atl AL091945 25.4000 -80.4000 L HU 115 949 4 14 318
1945255N19302 1945 60 NA NA NOT_NAMED 1945-09-15 21:00:00 TS 25.5667 -80.5683 main 0 0 P_____________ AL091945 25.5667 -80.5683 HU 111 950 3 10 318
1945255N19302 1945 60 NA NA NOT_NAMED 1945-09-16 00:00:00 TS 25.9000 -80.9000 100 954 hurdat_atl main 0 0 O_____________ hurdat_atl AL091945 25.9000 -80.9000 HU 100 954 3 9 318
1945255N19302 1945 60 NA NA NOT_NAMED 1945-09-16 03:00:00 TS 26.2404 -81.2351 main 0 0 P_____________ AL091945 26.2404 -81.2351 HU 92 958 2 9 322
1945255N19302 1945 60 NA NA NOT_NAMED 1945-09-16 06:00:00 TS 26.6000 -81.5000 85 963 hurdat_atl main 0 0 O_____________ hurdat_atl AL091945 26.6000 -81.5000 HU 85 963 2 9 332
1945255N19302 1945 60 NA NA NOT_NAMED 1945-09-16 09:00:00 TS 27.0274 -81.7024 main 0 0 P_____________ AL091945 27.0274 -81.7024 HU 80 968 1 9 343
1945255N19302 1945 60 NA NA NOT_NAMED 1945-09-16 12:00:00 TS 27.5000 -81.8000 75 974 hurdat_atl main 0 0 O_____________ hurdat_atl AL091945 27.5000 -81.8000 HU 75 974 1 10 355
1945255N19302 1945 60 NA NA NOT_NAMED 1945-09-16 15:00:00 TS 27.9850 -81.7877 main 0 0 P_____________ AL091945 27.9850 -81.7877 HU 72 978 1 10 5
1945255N19302 1945 60 NA NA NOT_NAMED 1945-09-16 18:00:00 TS 28.5000 -81.7000 70 982 hurdat_atl main 0 0 O_____________ hurdat_atl AL091945 28.5000 -81.7000 HU 70 982 1 11 8
1945255N19302 1945 60 NA NA NOT_NAMED 1945-09-16 21:00:00 TS 29.0200 -81.6148 main 0 0 P_____________ AL091945 29.0200 -81.6148 HU 67 984 1 11 9
1945255N19302 1945 60 NA NA NOT_NAMED 1945-09-17 00:00:00 TS 29.6000 -81.5000 65 987 hurdat_atl main 0 0 O_____________ hurdat_atl AL091945 29.6000 -81.5000 HU 65 987 1 13 10
1945255N19302 1945 60 NA NA NOT_NAMED 1945-09-17 03:00:00 TS 30.2846 -81.3622 main 9 9 P_____________ AL091945 30.2846 -81.3622 HU 62 988 0 14 10
1945255N19302 1945 60 NA NA NOT_NAMED 1945-09-17 06:00:00 TS 31.0000 -81.2000 60 990 hurdat_atl main 19 9 O_____________ hurdat_atl AL091945 31.0000 -81.2000 TS 60 990 0 14 11
1945255N19302 1945 60 NA NA NOT_NAMED 1945-09-17 09:00:00 TS 31.6770 -81.0503 main 9 0 P_____________ AL091945 31.6770 -81.0503 TS 60 990 0 14 13
1945255N19302 1945 60 NA NA NOT_NAMED 1945-09-17 11:00:00 TS 32.1000 -80.9000 60 990 hurdat_atl main 0 0 O_____________ hurdat_atl AL091945 32.1000 -80.9000 L TS 60 990 0 13 19
1945255N19302 1945 60 NA NA NOT_NAMED 1945-09-17 12:00:00 TS 32.3000 -80.8000 60 990 hurdat_atl main 0 0 O_____________ hurdat_atl AL091945 32.3000 -80.8000 TS 60 990 0 12 22
1945255N19302 1945 60 NA NA NOT_NAMED 1945-09-17 15:00:00 TS 32.8695 -80.5303 main 0 0 P_____________ AL091945 32.8695 -80.5303 TS 55 993 0 12 21
1945255N19302 1945 60 NA NA NOT_NAMED 1945-09-17 18:00:00 TS 33.4000 -80.3000 50 996 hurdat_atl main 0 0 O_____________ hurdat_atl AL091945 33.4000 -80.3000 TS 50 996 0 11 19
1945255N19302 1945 60 NA NA NOT_NAMED 1945-09-17 21:00:00 TS 33.8923 -80.1067 main 0 0 P_____________ AL091945 33.8923 -80.1067 TS 50 998 0 11 18
1945255N19302 1945 60 NA NA NOT_NAMED 1945-09-18 00:00:00 TS 34.4000 -79.9000 50 1000 hurdat_atl main 0 0 O_____________ hurdat_atl AL091945 34.4000 -79.9000 TS 50 1000 0 12 20
1945255N19302 1945 60 NA NA NOT_NAMED 1945-09-18 03:00:00 TS 34.9849 -79.6297 main 0 0 P_____________ AL091945 34.9849 -79.6297 TS 47 1003 0 13 22
1945255N19302 1945 60 NA NA NOT_NAMED 1945-09-18 06:00:00 TS 35.6000 -79.3000 45 1006 hurdat_atl main 0 0 O_____________ hurdat_atl AL091945 35.6000 -79.3000 TS 45 1006 0 13 24
1945255N19302 1945 60 NA NA NOT_NAMED 1945-09-18 09:00:00 TS 36.1768 -78.9654 main 0 0 P_____________ AL091945 36.1768 -78.9654 TS 42 1009 0 14 28
1945255N19302 1945 60 NA NA NOT_NAMED 1945-09-18 12:00:00 ET 36.8000 -78.5000 40 1012 hurdat_atl main 0 0 O_____________ hurdat_atl AL091945 36.8000 -78.5000 EX 40 1012 -4 16 35
1945255N19302 1945 60 NA NA NOT_NAMED 1945-09-18 15:00:00 ET 37.4897 -77.8377 main 0 0 P_____________ AL091945 37.4897 -77.8377 EX 37 -4 19 38
1945255N19302 1945 60 NA NA NOT_NAMED 1945-09-18 18:00:00 ET 38.3000 -77.0000 35 hurdat_atl main 0 0 O_____________ hurdat_atl AL091945 38.3000 -77.0000 EX 35 -4 22 38
1945255N19302 1945 60 NA NA NOT_NAMED 1945-09-18 21:00:00 ET 39.2614 -76.0803 main 0 0 P_____________ AL091945 39.2614 -76.0803 EX 32 -4 25 38
1945255N19302 1945 60 NA NA NOT_NAMED 1945-09-19 00:00:00 ET 40.3000 -75.0000 30 hurdat_atl main 0 0 O_____________ hurdat_atl AL091945 40.3000 -75.0000 EX 30 -4 27 40
1945255N19302 1945 60 NA NA NOT_NAMED 1945-09-19 03:00:00 ET 41.3128 -73.8011 main 0 0 P_____________ AL091945 41.3128 -73.8011 EX 27 -4 28 44
1945255N19302 1945 60 NA NA NOT_NAMED 1945-09-19 06:00:00 ET 42.3000 -72.4000 25 hurdat_atl main 0 0 O_____________ hurdat_atl AL091945 42.3000 -72.4000 EX 25 -4 30 49
1945255N19302 1945 60 NA NA NOT_NAMED 1945-09-19 09:00:00 ET 43.2728 -70.8051 main 0 0 P_____________ AL091945 43.2728 -70.8051 EX 25 -4 31 54
1945255N19302 1945 60 NA NA NOT_NAMED 1945-09-19 12:00:00 ET 44.1000 -69.0000 25 hurdat_atl main 7 0 O_____________ hurdat_atl AL091945 44.1000 -69.0000 EX 25 -4 30 62
1945255N19302 1945 60 NA NA NOT_NAMED 1945-09-19 15:00:00 ET 44.6944 -67.0705 main 0 0 P_____________ AL091945 44.6944 -67.0705 EX 25 -4 30 71
1945255N19302 1945 60 NA NA NOT_NAMED 1945-09-19 18:00:00 ET 45.1000 -65.0000 25 hurdat_atl main 7 0 O_____________ hurdat_atl AL091945 45.1000 -65.0000 EX 25 -4 30 77
1945255N19302 1945 60 NA NA NOT_NAMED 1945-09-19 21:00:00 ET 45.3633 -62.9249 main 0 0 P_____________ AL091945 45.3633 -62.9249 EX 27 -4 31 81
1945255N19302 1945 60 NA NA NOT_NAMED 1945-09-20 00:00:00 ET 45.6000 -60.6000 30 hurdat_atl main 0 0 O_____________ hurdat_atl AL091945 45.6000 -60.6000 EX 30 -4 36 81
1945255N19302 1945 60 NA NA NOT_NAMED 1945-09-20 03:00:00 ET 45.9352 -57.8043 main 157 66 P_____________ AL091945 45.9352 -57.8043 EX 30 -4 41 80
1945255N19302 1945 60 NA NA NOT_NAMED 1945-09-20 06:00:00 ET 46.3000 -54.8000 30 hurdat_atl main 71 11 O_____________ hurdat_atl AL091945 46.3000 -54.8000 EX 30 -4 43 81
1945255N19302 1945 60 NA NA NOT_NAMED 1945-09-20 09:00:00 ET 46.6410 -51.6832 main 101 101 P_____________ AL091945 46.6410 -51.6832 EX 32 -4 40 80
1945255N19302 1945 60 NA NA NOT_NAMED 1945-09-20 12:00:00 ET 47.0000 -49.0000 35 hurdat_atl main 276 276 O_____________ hurdat_atl AL091945 47.0000 -49.0000 EX 35 -4 31 75
1945255N19302 1945 60 NA NA NOT_NAMED 1945-09-20 15:00:00 ET 47.4240 -47.2618 main 396 396 P_____________ AL091945 47.4240 -47.2618 EX 35 -4 22 65
1945255N19302 1945 60 NA NA NOT_NAMED 1945-09-20 18:00:00 ET 47.9000 -46.1000 35 hurdat_atl main 486 O_____________ hurdat_atl AL091945 47.9000 -46.1000 EX 35 -4 18 59

About IBTrACS Database

This database is a web-friendly format of International Best Track Archive for Climate Stewardship (IBTrACS), a global best track data archive curated by NOAA dating back to 1842.

Updated: 2021-11-26